sensor_id;sensor_type;location;lat;lon;timestamp;P1;durP1;ratioP1;P2;durP2;ratioP2
7875;SDS011;69649;53.712;9.680;2023-10-09T00:00:27;5.40;;;3.13;;
7875;SDS011;69649;53.712;9.680;2023-10-09T00:03:12;7.13;;;3.07;;
7875;SDS011;69649;53.712;9.680;2023-10-09T00:05:38;5.17;;;3.47;;
7875;SDS011;69649;53.712;9.680;2023-10-09T00:08:05;3.67;;;2.80;;
7875;SDS011;69649;53.712;9.680;2023-10-09T00:10:33;5.23;;;2.67;;
7875;SDS011;69649;53.712;9.680;2023-10-09T00:13:01;3.77;;;2.87;;
7875;SDS011;69649;53.712;9.680;2023-10-09T00:15:27;5.00;;;2.57;;
7875;SDS011;69649;53.712;9.680;2023-10-09T00:17:54;4.77;;;2.77;;
7875;SDS011;69649;53.712;9.680;2023-10-09T00:20:21;2.93;;;2.37;;
7875;SDS011;69649;53.712;9.680;2023-10-09T00:22:49;3.90;;;3.40;;
7875;SDS011;69649;53.712;9.680;2023-10-09T00:25:16;5.30;;;2.50;;
7875;SDS011;69649;53.712;9.680;2023-10-09T00:27:50;4.13;;;2.50;;
7875;SDS011;69649;53.712;9.680;2023-10-09T00:30:17;7.17;;;2.90;;
7875;SDS011;69649;53.712;9.680;2023-10-09T00:32:43;5.80;;;2.70;;
7875;SDS011;69649;53.712;9.680;2023-10-09T00:35:29;5.50;;;2.87;;
7875;SDS011;69649;53.712;9.680;2023-10-09T00:38:12;3.90;;;2.23;;
7875;SDS011;69649;53.712;9.680;2023-10-09T00:40:49;6.77;;;3.20;;
7875;SDS011;69649;53.712;9.680;2023-10-09T00:43:18;6.77;;;2.67;;
7875;SDS011;69649;53.712;9.680;2023-10-09T00:45:45;4.67;;;2.37;;
7875;SDS011;69649;53.712;9.680;2023-10-09T00:48:12;2.90;;;2.23;;
7875;SDS011;69649;53.712;9.680;2023-10-09T00:50:40;3.57;;;2.07;;
7875;SDS011;69649;53.712;9.680;2023-10-09T00:53:08;4.77;;;2.27;;
7875;SDS011;69649;53.712;9.680;2023-10-09T00:55:36;4.10;;;2.30;;
7875;SDS011;69649;53.712;9.680;2023-10-09T00:58:05;9.00;;;2.00;;
7875;SDS011;69649;53.712;9.680;2023-10-09T01:00:33;5.77;;;2.33;;
7875;SDS011;69649;53.712;9.680;2023-10-09T01:03:02;4.00;;;2.67;;
7875;SDS011;69649;53.712;9.680;2023-10-09T01:05:30;6.80;;;2.30;;
7875;SDS011;69649;53.712;9.680;2023-10-09T01:07:56;3.33;;;2.10;;
7875;SDS011;69649;53.712;9.680;2023-10-09T01:10:24;5.33;;;2.63;;
7875;SDS011;69649;53.712;9.680;2023-10-09T01:12:51;6.03;;;1.90;;
7875;SDS011;69649;53.712;9.680;2023-10-09T01:15:19;4.37;;;2.30;;
7875;SDS011;69649;53.712;9.680;2023-10-09T01:17:46;6.07;;;2.37;;
7875;SDS011;69649;53.712;9.680;2023-10-09T01:20:13;2.47;;;1.87;;
7875;SDS011;69649;53.712;9.680;2023-10-09T01:22:40;3.83;;;2.30;;
7875;SDS011;69649;53.712;9.680;2023-10-09T01:25:08;2.50;;;1.90;;
7875;SDS011;69649;53.712;9.680;2023-10-09T01:27:35;6.67;;;2.07;;
7875;SDS011;69649;53.712;9.680;2023-10-09T01:30:03;3.80;;;1.80;;
7875;SDS011;69649;53.712;9.680;2023-10-09T01:32:30;6.50;;;2.10;;
7875;SDS011;69649;53.712;9.680;2023-10-09T01:34:56;2.50;;;1.73;;
7875;SDS011;69649;53.712;9.680;2023-10-09T01:37:23;3.23;;;1.80;;
7875;SDS011;69649;53.712;9.680;2023-10-09T01:39:55;4.47;;;1.80;;
7875;SDS011;69649;53.712;9.680;2023-10-09T01:42:23;3.30;;;1.80;;
7875;SDS011;69649;53.712;9.680;2023-10-09T01:44:57;3.43;;;1.77;;
7875;SDS011;69649;53.712;9.680;2023-10-09T01:47:43;2.00;;;1.70;;
7875;SDS011;69649;53.712;9.680;2023-10-09T01:50:20;3.97;;;1.80;;
7875;SDS011;69649;53.712;9.680;2023-10-09T01:52:57;4.87;;;1.83;;
7875;SDS011;69649;53.712;9.680;2023-10-09T01:55:24;3.87;;;1.80;;
7875;SDS011;69649;53.712;9.680;2023-10-09T01:57:55;2.53;;;1.77;;
7875;SDS011;69649;53.712;9.680;2023-10-09T02:00:26;3.90;;;1.90;;
7875;SDS011;69649;53.712;9.680;2023-10-09T02:02:53;2.60;;;1.80;;
7875;SDS011;69649;53.712;9.680;2023-10-09T02:05:19;2.50;;;1.60;;
7875;SDS011;69649;53.712;9.680;2023-10-09T02:07:47;3.63;;;2.10;;
7875;SDS011;69649;53.712;9.680;2023-10-09T02:10:22;4.03;;;1.70;;
7875;SDS011;69649;53.712;9.680;2023-10-09T02:12:58;4.43;;;2.07;;
7875;SDS011;69649;53.712;9.680;2023-10-09T02:15:29;4.53;;;2.13;;
7875;SDS011;69649;53.712;9.680;2023-10-09T02:18:07;7.13;;;2.07;;
7875;SDS011;69649;53.712;9.680;2023-10-09T02:20:49;4.40;;;1.60;;
7875;SDS011;69649;53.712;9.680;2023-10-09T02:23:32;3.50;;;1.93;;
7875;SDS011;69649;53.712;9.680;2023-10-09T02:26:07;5.27;;;2.37;;
7875;SDS011;69649;53.712;9.680;2023-10-09T02:28:34;3.17;;;1.77;;
7875;SDS011;69649;53.712;9.680;2023-10-09T02:31:01;3.17;;;1.90;;
7875;SDS011;69649;53.712;9.680;2023-10-09T02:33:35;2.27;;;1.70;;
7875;SDS011;69649;53.712;9.680;2023-10-09T02:36:02;3.83;;;1.87;;
7875;SDS011;69649;53.712;9.680;2023-10-09T02:38:30;4.33;;;1.87;;
7875;SDS011;69649;53.712;9.680;2023-10-09T02:40:58;4.60;;;1.90;;
7875;SDS011;69649;53.712;9.680;2023-10-09T02:43:32;2.50;;;1.93;;
7875;SDS011;69649;53.712;9.680;2023-10-09T02:46:00;3.27;;;1.63;;
7875;SDS011;69649;53.712;9.680;2023-10-09T02:48:28;3.40;;;1.70;;
7875;SDS011;69649;53.712;9.680;2023-10-09T02:50:56;2.67;;;1.70;;
7875;SDS011;69649;53.712;9.680;2023-10-09T02:53:22;4.53;;;1.70;;
7875;SDS011;69649;53.712;9.680;2023-10-09T02:55:50;4.60;;;1.80;;
7875;SDS011;69649;53.712;9.680;2023-10-09T02:58:20;5.97;;;1.87;;
7875;SDS011;69649;53.712;9.680;2023-10-09T03:00:46;2.70;;;1.70;;
7875;SDS011;69649;53.712;9.680;2023-10-09T03:03:13;4.07;;;1.73;;
7875;SDS011;69649;53.712;9.680;2023-10-09T03:05:41;4.83;;;1.83;;
7875;SDS011;69649;53.712;9.680;2023-10-09T03:08:07;2.53;;;1.60;;
7875;SDS011;69649;53.712;9.680;2023-10-09T03:10:35;4.50;;;1.70;;
7875;SDS011;69649;53.712;9.680;2023-10-09T03:13:01;4.67;;;1.90;;
7875;SDS011;69649;53.712;9.680;2023-10-09T03:15:29;2.17;;;1.60;;
7875;SDS011;69649;53.712;9.680;2023-10-09T03:17:57;2.17;;;1.60;;
7875;SDS011;69649;53.712;9.680;2023-10-09T03:20:24;3.73;;;1.53;;
7875;SDS011;69649;53.712;9.680;2023-10-09T03:22:50;4.23;;;1.90;;
7875;SDS011;69649;53.712;9.680;2023-10-09T03:25:15;2.83;;;1.70;;
7875;SDS011;69649;53.712;9.680;2023-10-09T03:27:42;3.27;;;1.70;;
7875;SDS011;69649;53.712;9.680;2023-10-09T03:30:12;3.53;;;1.83;;
7875;SDS011;69649;53.712;9.680;2023-10-09T03:32:49;2.57;;;1.90;;
7875;SDS011;69649;53.712;9.680;2023-10-09T03:35:21;3.60;;;1.90;;
7875;SDS011;69649;53.712;9.680;2023-10-09T03:40:44;6.27;;;1.40;;
7875;SDS011;69649;53.712;9.680;2023-10-09T03:43:09;2.10;;;1.47;;
7875;SDS011;69649;53.712;9.680;2023-10-09T03:45:37;2.43;;;1.50;;
7875;SDS011;69649;53.712;9.680;2023-10-09T03:48:05;2.03;;;1.70;;
7875;SDS011;69649;53.712;9.680;2023-10-09T03:50:36;4.77;;;1.60;;
7875;SDS011;69649;53.712;9.680;2023-10-09T03:53:06;2.40;;;2.17;;
7875;SDS011;69649;53.712;9.680;2023-10-09T03:55:36;1.70;;;1.40;;
7875;SDS011;69649;53.712;9.680;2023-10-09T03:58:21;3.30;;;1.47;;
7875;SDS011;69649;53.712;9.680;2023-10-09T04:00:47;4.50;;;1.80;;
7875;SDS011;69649;53.712;9.680;2023-10-09T04:03:14;3.83;;;1.73;;
7875;SDS011;69649;53.712;9.680;2023-10-09T04:05:41;2.10;;;1.80;;
7875;SDS011;69649;53.712;9.680;2023-10-09T04:08:11;4.00;;;1.70;;
7875;SDS011;69649;53.712;9.680;2023-10-09T04:10:48;4.07;;;1.50;;
7875;SDS011;69649;53.712;9.680;2023-10-09T04:13:18;4.23;;;1.70;;
7875;SDS011;69649;53.712;9.680;2023-10-09T04:15:46;2.67;;;1.80;;
7875;SDS011;69649;53.712;9.680;2023-10-09T04:18:14;1.60;;;1.50;;
7875;SDS011;69649;53.712;9.680;2023-10-09T04:20:42;2.97;;;1.93;;
7875;SDS011;69649;53.712;9.680;2023-10-09T04:23:27;3.50;;;2.00;;
7875;SDS011;69649;53.712;9.680;2023-10-09T04:26:04;5.30;;;1.70;;
7875;SDS011;69649;53.712;9.680;2023-10-09T04:28:31;2.60;;;1.60;;
7875;SDS011;69649;53.712;9.680;2023-10-09T04:30:58;4.10;;;1.90;;
7875;SDS011;69649;53.712;9.680;2023-10-09T04:33:26;2.60;;;1.70;;
7875;SDS011;69649;53.712;9.680;2023-10-09T04:36:07;4.03;;;1.77;;
7875;SDS011;69649;53.712;9.680;2023-10-09T04:38:49;3.87;;;2.03;;
7875;SDS011;69649;53.712;9.680;2023-10-09T04:41:30;3.57;;;2.03;;
7875;SDS011;69649;53.712;9.680;2023-10-09T04:44:10;2.00;;;1.70;;
7875;SDS011;69649;53.712;9.680;2023-10-09T04:46:52;2.87;;;2.07;;
7875;SDS011;69649;53.712;9.680;2023-10-09T04:49:17;3.17;;;1.90;;
7875;SDS011;69649;53.712;9.680;2023-10-09T04:51:53;4.20;;;1.90;;
7875;SDS011;69649;53.712;9.680;2023-10-09T04:54:30;2.40;;;1.60;;
7875;SDS011;69649;53.712;9.680;2023-10-09T04:57:07;3.93;;;2.00;;
7875;SDS011;69649;53.712;9.680;2023-10-09T04:59:35;5.37;;;2.07;;
7875;SDS011;69649;53.712;9.680;2023-10-09T05:02:02;4.40;;;1.70;;
7875;SDS011;69649;53.712;9.680;2023-10-09T05:04:30;5.40;;;2.00;;
7875;SDS011;69649;53.712;9.680;2023-10-09T05:07:00;8.47;;;2.10;;
7875;SDS011;69649;53.712;9.680;2023-10-09T05:09:29;3.17;;;1.63;;
7875;SDS011;69649;53.712;9.680;2023-10-09T05:11:56;2.30;;;1.57;;
7875;SDS011;69649;53.712;9.680;2023-10-09T05:14:24;4.23;;;2.07;;
7875;SDS011;69649;53.712;9.680;2023-10-09T05:16:55;5.80;;;2.10;;
7875;SDS011;69649;53.712;9.680;2023-10-09T05:19:21;3.37;;;1.83;;
7875;SDS011;69649;53.712;9.680;2023-10-09T05:22:06;4.33;;;2.00;;
7875;SDS011;69649;53.712;9.680;2023-10-09T05:24:33;4.90;;;2.00;;
7875;SDS011;69649;53.712;9.680;2023-10-09T05:27:01;3.63;;;1.90;;
7875;SDS011;69649;53.712;9.680;2023-10-09T05:29:29;5.53;;;1.80;;
7875;SDS011;69649;53.712;9.680;2023-10-09T05:32:06;2.40;;;1.60;;
7875;SDS011;69649;53.712;9.680;2023-10-09T05:34:40;3.03;;;1.57;;
7875;SDS011;69649;53.712;9.680;2023-10-09T05:37:31;4.37;;;2.10;;
7875;SDS011;69649;53.712;9.680;2023-10-09T05:39:58;4.47;;;1.80;;
7875;SDS011;69649;53.712;9.680;2023-10-09T05:42:33;3.33;;;1.87;;
7875;SDS011;69649;53.712;9.680;2023-10-09T05:45:05;3.20;;;2.17;;
7875;SDS011;69649;53.712;9.680;2023-10-09T05:47:52;4.40;;;2.00;;
7875;SDS011;69649;53.712;9.680;2023-10-09T05:50:23;2.43;;;1.60;;
7875;SDS011;69649;53.712;9.680;2023-10-09T05:52:53;4.63;;;1.80;;
7875;SDS011;69649;53.712;9.680;2023-10-09T05:55:23;3.80;;;2.00;;
7875;SDS011;69649;53.712;9.680;2023-10-09T05:57:52;4.03;;;1.70;;
7875;SDS011;69649;53.712;9.680;2023-10-09T06:00:23;3.00;;;1.73;;
7875;SDS011;69649;53.712;9.680;2023-10-09T06:03:08;3.40;;;1.80;;
7875;SDS011;69649;53.712;9.680;2023-10-09T06:08:29;3.17;;;1.97;;
7875;SDS011;69649;53.712;9.680;2023-10-09T06:11:10;6.57;;;2.13;;
7875;SDS011;69649;53.712;9.680;2023-10-09T06:13:57;4.93;;;1.90;;
7875;SDS011;69649;53.712;9.680;2023-10-09T06:16:32;4.20;;;2.10;;
7875;SDS011;69649;53.712;9.680;2023-10-09T06:21:40;2.83;;;1.70;;
7875;SDS011;69649;53.712;9.680;2023-10-09T06:24:24;3.40;;;2.17;;
7875;SDS011;69649;53.712;9.680;2023-10-09T06:26:51;3.27;;;2.00;;
7875;SDS011;69649;53.712;9.680;2023-10-09T06:29:28;6.10;;;2.40;;
7875;SDS011;69649;53.712;9.680;2023-10-09T06:32:18;4.30;;;2.33;;
7875;SDS011;69649;53.712;9.680;2023-10-09T06:34:46;5.47;;;2.53;;
7875;SDS011;69649;53.712;9.680;2023-10-09T06:37:20;5.17;;;2.60;;
7875;SDS011;69649;53.712;9.680;2023-10-09T06:39:51;3.87;;;2.40;;
7875;SDS011;69649;53.712;9.680;2023-10-09T06:42:26;3.43;;;2.50;;
7875;SDS011;69649;53.712;9.680;2023-10-09T06:45:07;6.77;;;2.97;;
7875;SDS011;69649;53.712;9.680;2023-10-09T06:47:53;3.97;;;2.47;;
7875;SDS011;69649;53.712;9.680;2023-10-09T06:50:21;5.27;;;2.70;;
7875;SDS011;69649;53.712;9.680;2023-10-09T06:53:25;4.80;;;2.70;;
7875;SDS011;69649;53.712;9.680;2023-10-09T06:55:53;5.37;;;2.60;;
7875;SDS011;69649;53.712;9.680;2023-10-09T06:58:31;2.80;;;2.20;;
7875;SDS011;69649;53.712;9.680;2023-10-09T07:00:58;4.40;;;2.50;;
7875;SDS011;69649;53.712;9.680;2023-10-09T07:03:29;3.47;;;2.63;;
7875;SDS011;69649;53.712;9.680;2023-10-09T07:06:02;4.93;;;2.93;;
7875;SDS011;69649;53.712;9.680;2023-10-09T07:08:51;5.53;;;2.50;;
7875;SDS011;69649;53.712;9.680;2023-10-09T07:11:25;5.40;;;2.80;;
7875;SDS011;69649;53.712;9.680;2023-10-09T07:13:55;4.03;;;2.30;;
7875;SDS011;69649;53.712;9.680;2023-10-09T07:16:22;5.50;;;3.33;;
7875;SDS011;69649;53.712;9.680;2023-10-09T07:18:56;4.30;;;2.70;;
7875;SDS011;69649;53.712;9.680;2023-10-09T07:21:23;5.93;;;2.53;;
7875;SDS011;69649;53.712;9.680;2023-10-09T07:23:51;3.50;;;2.57;;
7875;SDS011;69649;53.712;9.680;2023-10-09T07:26:19;4.60;;;2.67;;
7875;SDS011;69649;53.712;9.680;2023-10-09T07:28:46;6.30;;;2.93;;
7875;SDS011;69649;53.712;9.680;2023-10-09T07:31:17;2.70;;;2.50;;
7875;SDS011;69649;53.712;9.680;2023-10-09T07:33:53;4.53;;;2.93;;
7875;SDS011;69649;53.712;9.680;2023-10-09T07:36:25;2.77;;;2.30;;
7875;SDS011;69649;53.712;9.680;2023-10-09T07:39:03;4.13;;;2.97;;
7875;SDS011;69649;53.712;9.680;2023-10-09T07:41:32;4.27;;;2.90;;
7875;SDS011;69649;53.712;9.680;2023-10-09T07:43:59;5.07;;;2.83;;
7875;SDS011;69649;53.712;9.680;2023-10-09T07:46:27;3.70;;;3.00;;
7875;SDS011;69649;53.712;9.680;2023-10-09T07:49:03;4.13;;;2.83;;
7875;SDS011;69649;53.712;9.680;2023-10-09T07:51:28;5.27;;;2.63;;
7875;SDS011;69649;53.712;9.680;2023-10-09T07:53:56;3.93;;;2.60;;
7875;SDS011;69649;53.712;9.680;2023-10-09T07:56:25;3.27;;;2.70;;
7875;SDS011;69649;53.712;9.680;2023-10-09T07:58:53;4.80;;;2.70;;
7875;SDS011;69649;53.712;9.680;2023-10-09T08:01:18;4.23;;;2.77;;
7875;SDS011;69649;53.712;9.680;2023-10-09T08:04:02;3.97;;;2.43;;
7875;SDS011;69649;53.712;9.680;2023-10-09T08:06:30;3.83;;;2.70;;
7875;SDS011;69649;53.712;9.680;2023-10-09T08:09:08;4.07;;;2.90;;
7875;SDS011;69649;53.712;9.680;2023-10-09T08:11:40;5.33;;;2.90;;
7875;SDS011;69649;53.712;9.680;2023-10-09T08:16:37;2.83;;;2.30;;
7875;SDS011;69649;53.712;9.680;2023-10-09T08:19:03;2.97;;;2.40;;
7875;SDS011;69649;53.712;9.680;2023-10-09T08:21:32;3.07;;;2.50;;
7875;SDS011;69649;53.712;9.680;2023-10-09T08:24:11;4.97;;;2.93;;
7875;SDS011;69649;53.712;9.680;2023-10-09T08:26:42;3.50;;;2.23;;
7875;SDS011;69649;53.712;9.680;2023-10-09T08:29:09;2.40;;;2.20;;
7875;SDS011;69649;53.712;9.680;2023-10-09T08:31:43;3.87;;;2.33;;
7875;SDS011;69649;53.712;9.680;2023-10-09T08:34:12;3.07;;;2.20;;
7875;SDS011;69649;53.712;9.680;2023-10-09T08:36:51;2.77;;;2.20;;
7875;SDS011;69649;53.712;9.680;2023-10-09T08:39:18;3.50;;;2.13;;
7875;SDS011;69649;53.712;9.680;2023-10-09T08:41:53;3.80;;;2.30;;
7875;SDS011;69649;53.712;9.680;2023-10-09T08:44:22;3.53;;;2.50;;
7875;SDS011;69649;53.712;9.680;2023-10-09T08:46:50;2.57;;;2.37;;
7875;SDS011;69649;53.712;9.680;2023-10-09T08:49:17;2.20;;;2.00;;
7875;SDS011;69649;53.712;9.680;2023-10-09T08:51:43;2.20;;;2.00;;
7875;SDS011;69649;53.712;9.680;2023-10-09T08:54:11;3.07;;;2.30;;
7875;SDS011;69649;53.712;9.680;2023-10-09T08:56:39;3.80;;;2.67;;
7875;SDS011;69649;53.712;9.680;2023-10-09T08:59:07;3.07;;;2.30;;
7875;SDS011;69649;53.712;9.680;2023-10-09T09:01:33;3.10;;;2.60;;
7875;SDS011;69649;53.712;9.680;2023-10-09T09:03:59;3.23;;;2.07;;
7875;SDS011;69649;53.712;9.680;2023-10-09T09:06:35;3.37;;;2.10;;
7875;SDS011;69649;53.712;9.680;2023-10-09T09:08:57;3.83;;;2.53;;
7875;SDS011;69649;53.712;9.680;2023-10-09T09:11:28;2.77;;;2.30;;
7875;SDS011;69649;53.712;9.680;2023-10-09T09:16:32;2.30;;;2.10;;
7875;SDS011;69649;53.712;9.680;2023-10-09T09:19:20;3.83;;;2.20;;
7875;SDS011;69649;53.712;9.680;2023-10-09T09:21:51;4.07;;;2.07;;
7875;SDS011;69649;53.712;9.680;2023-10-09T09:24:24;2.97;;;2.10;;
7875;SDS011;69649;53.712;9.680;2023-10-09T09:26:53;2.70;;;2.00;;
7875;SDS011;69649;53.712;9.680;2023-10-09T09:32:06;4.07;;;2.43;;
7875;SDS011;69649;53.712;9.680;2023-10-09T09:37:28;2.60;;;1.87;;
7875;SDS011;69649;53.712;9.680;2023-10-09T09:39:57;2.20;;;2.00;;
7875;SDS011;69649;53.712;9.680;2023-10-09T09:42:23;3.47;;;1.93;;
7875;SDS011;69649;53.712;9.680;2023-10-09T09:44:51;2.93;;;2.00;;
7875;SDS011;69649;53.712;9.680;2023-10-09T09:47:17;2.33;;;1.57;;
7875;SDS011;69649;53.712;9.680;2023-10-09T09:49:54;1.83;;;1.60;;
7875;SDS011;69649;53.712;9.680;2023-10-09T09:52:29;2.43;;;1.80;;
7875;SDS011;69649;53.712;9.680;2023-10-09T09:54:57;2.13;;;1.93;;
7875;SDS011;69649;53.712;9.680;2023-10-09T09:57:24;3.40;;;2.20;;
7875;SDS011;69649;53.712;9.680;2023-10-09T09:59:54;2.13;;;1.90;;
7875;SDS011;69649;53.712;9.680;2023-10-09T10:02:32;1.90;;;1.57;;
7875;SDS011;69649;53.712;9.680;2023-10-09T10:04:55;2.00;;;1.80;;
7875;SDS011;69649;53.712;9.680;2023-10-09T10:07:22;1.70;;;1.60;;
7875;SDS011;69649;53.712;9.680;2023-10-09T10:09:50;2.10;;;1.90;;
7875;SDS011;69649;53.712;9.680;2023-10-09T10:12:48;1.80;;;1.70;;
7875;SDS011;69649;53.712;9.680;2023-10-09T10:14:51;2.37;;;1.83;;
7875;SDS011;69649;53.712;9.680;2023-10-09T10:17:27;1.83;;;1.53;;
7875;SDS011;69649;53.712;9.680;2023-10-09T10:20:01;2.17;;;1.67;;
7875;SDS011;69649;53.712;9.680;2023-10-09T10:22:47;2.87;;;2.00;;
7875;SDS011;69649;53.712;9.680;2023-10-09T10:28:17;2.40;;;2.00;;
7875;SDS011;69649;53.712;9.680;2023-10-09T10:30:54;2.33;;;2.13;;
7875;SDS011;69649;53.712;9.680;2023-10-09T10:33:20;4.43;;;2.63;;
7875;SDS011;69649;53.712;9.680;2023-10-09T10:35:48;4.00;;;2.70;;
7875;SDS011;69649;53.712;9.680;2023-10-09T10:38:22;3.67;;;2.53;;
7875;SDS011;69649;53.712;9.680;2023-10-09T10:40:50;2.50;;;2.30;;
7875;SDS011;69649;53.712;9.680;2023-10-09T10:43:26;3.37;;;2.17;;
7875;SDS011;69649;53.712;9.680;2023-10-09T10:46:06;3.17;;;2.10;;
7875;SDS011;69649;53.712;9.680;2023-10-09T10:48:34;2.27;;;2.07;;
7875;SDS011;69649;53.712;9.680;2023-10-09T10:51:20;3.97;;;2.37;;
7875;SDS011;69649;53.712;9.680;2023-10-09T10:53:50;3.20;;;2.53;;
7875;SDS011;69649;53.712;9.680;2023-10-09T10:56:19;2.17;;;1.87;;
7875;SDS011;69649;53.712;9.680;2023-10-09T10:58:53;4.30;;;2.07;;
7875;SDS011;69649;53.712;9.680;2023-10-09T11:01:36;2.50;;;2.30;;
7875;SDS011;69649;53.712;9.680;2023-10-09T11:04:10;2.37;;;2.17;;
7875;SDS011;69649;53.712;9.680;2023-10-09T11:06:33;3.07;;;2.07;;
7875;SDS011;69649;53.712;9.680;2023-10-09T11:09:06;3.33;;;2.00;;
7875;SDS011;69649;53.712;9.680;2023-10-09T11:14:27;3.77;;;2.40;;
7875;SDS011;69649;53.712;9.680;2023-10-09T11:16:55;3.03;;;1.90;;
7875;SDS011;69649;53.712;9.680;2023-10-09T11:19:23;2.33;;;2.03;;
7875;SDS011;69649;53.712;9.680;2023-10-09T11:21:55;2.83;;;2.60;;
7875;SDS011;69649;53.712;9.680;2023-10-09T11:24:42;2.30;;;2.10;;
7875;SDS011;69649;53.712;9.680;2023-10-09T11:27:09;2.27;;;2.07;;
7875;SDS011;69649;53.712;9.680;2023-10-09T11:29:37;2.87;;;2.40;;
7875;SDS011;69649;53.712;9.680;2023-10-09T11:32:15;2.47;;;2.10;;
7875;SDS011;69649;53.712;9.680;2023-10-09T11:34:44;2.10;;;1.90;;
7875;SDS011;69649;53.712;9.680;2023-10-09T11:37:20;2.70;;;1.90;;
7875;SDS011;69649;53.712;9.680;2023-10-09T11:39:55;2.63;;;2.00;;
7875;SDS011;69649;53.712;9.680;2023-10-09T11:42:27;2.67;;;2.47;;
7875;SDS011;69649;53.712;9.680;2023-10-09T11:45:22;2.63;;;2.40;;
7875;SDS011;69649;53.712;9.680;2023-10-09T11:47:51;2.23;;;2.03;;
7875;SDS011;69649;53.712;9.680;2023-10-09T11:53:43;3.07;;;2.77;;
7875;SDS011;69649;53.712;9.680;2023-10-09T11:56:15;3.03;;;2.80;;
7875;SDS011;69649;53.712;9.680;2023-10-09T11:58:48;2.33;;;2.07;;
7875;SDS011;69649;53.712;9.680;2023-10-09T12:01:18;1.87;;;1.77;;
7875;SDS011;69649;53.712;9.680;2023-10-09T12:03:49;2.07;;;1.87;;
7875;SDS011;69649;53.712;9.680;2023-10-09T12:09:02;2.67;;;1.90;;
7875;SDS011;69649;53.712;9.680;2023-10-09T12:11:29;2.10;;;1.90;;
7875;SDS011;69649;53.712;9.680;2023-10-09T12:13:56;2.63;;;1.83;;
7875;SDS011;69649;53.712;9.680;2023-10-09T12:16:23;2.97;;;2.07;;
7875;SDS011;69649;53.712;9.680;2023-10-09T12:18:51;2.47;;;2.00;;
7875;SDS011;69649;53.712;9.680;2023-10-09T12:21:18;4.50;;;2.30;;
7875;SDS011;69649;53.712;9.680;2023-10-09T12:23:45;4.47;;;2.03;;
7875;SDS011;69649;53.712;9.680;2023-10-09T12:26:12;2.67;;;2.47;;
7875;SDS011;69649;53.712;9.680;2023-10-09T12:28:42;2.30;;;2.10;;
7875;SDS011;69649;53.712;9.680;2023-10-09T12:31:15;2.43;;;2.23;;
7875;SDS011;69649;53.712;9.680;2023-10-09T12:33:43;2.60;;;2.17;;
7875;SDS011;69649;53.712;9.680;2023-10-09T12:36:12;2.20;;;1.90;;
7875;SDS011;69649;53.712;9.680;2023-10-09T12:38:47;2.50;;;2.20;;
7875;SDS011;69649;53.712;9.680;2023-10-09T12:41:18;2.43;;;2.07;;
7875;SDS011;69649;53.712;9.680;2023-10-09T12:43:54;2.47;;;2.23;;
7875;SDS011;69649;53.712;9.680;2023-10-09T12:46:20;3.23;;;2.80;;
7875;SDS011;69649;53.712;9.680;2023-10-09T12:48:54;3.13;;;2.50;;
7875;SDS011;69649;53.712;9.680;2023-10-09T12:51:21;2.90;;;2.40;;
7875;SDS011;69649;53.712;9.680;2023-10-09T12:53:49;2.40;;;2.20;;
7875;SDS011;69649;53.712;9.680;2023-10-09T12:56:16;3.17;;;2.40;;
7875;SDS011;69649;53.712;9.680;2023-10-09T12:58:43;2.63;;;2.30;;
7875;SDS011;69649;53.712;9.680;2023-10-09T13:01:18;2.20;;;2.00;;
7875;SDS011;69649;53.712;9.680;2023-10-09T13:03:45;2.53;;;2.00;;
7875;SDS011;69649;53.712;9.680;2023-10-09T13:06:13;2.40;;;2.20;;
7875;SDS011;69649;53.712;9.680;2023-10-09T13:08:40;2.77;;;2.57;;
7875;SDS011;69649;53.712;9.680;2023-10-09T13:11:08;4.60;;;2.57;;
7875;SDS011;69649;53.712;9.680;2023-10-09T13:13:40;2.90;;;2.60;;
7875;SDS011;69649;53.712;9.680;2023-10-09T13:16:12;2.10;;;1.90;;
7875;SDS011;69649;53.712;9.680;2023-10-09T13:18:55;2.30;;;1.93;;
7875;SDS011;69649;53.712;9.680;2023-10-09T13:21:43;3.33;;;2.20;;
7875;SDS011;69649;53.712;9.680;2023-10-09T13:24:09;2.53;;;2.30;;
7875;SDS011;69649;53.712;9.680;2023-10-09T13:26:43;2.40;;;2.20;;
7875;SDS011;69649;53.712;9.680;2023-10-09T13:29:12;2.10;;;1.90;;
7875;SDS011;69649;53.712;9.680;2023-10-09T13:31:39;2.17;;;1.93;;
7875;SDS011;69649;53.712;9.680;2023-10-09T13:34:07;2.87;;;2.13;;
7875;SDS011;69649;53.712;9.680;2023-10-09T13:36:35;1.90;;;1.70;;
7875;SDS011;69649;53.712;9.680;2023-10-09T13:39:03;2.27;;;1.80;;
7875;SDS011;69649;53.712;9.680;2023-10-09T13:41:47;4.10;;;1.70;;
7875;SDS011;69649;53.712;9.680;2023-10-09T13:44:15;2.00;;;1.87;;
7875;SDS011;69649;53.712;9.680;2023-10-09T13:46:41;2.67;;;2.30;;
7875;SDS011;69649;53.712;9.680;2023-10-09T13:49:07;2.73;;;2.30;;
7875;SDS011;69649;53.712;9.680;2023-10-09T13:51:35;2.33;;;1.93;;
7875;SDS011;69649;53.712;9.680;2023-10-09T13:54:01;2.37;;;2.10;;
7875;SDS011;69649;53.712;9.680;2023-10-09T13:56:27;2.93;;;2.50;;
7875;SDS011;69649;53.712;9.680;2023-10-09T13:58:52;2.57;;;2.10;;
7875;SDS011;69649;53.712;9.680;2023-10-09T14:01:20;2.23;;;2.03;;
7875;SDS011;69649;53.712;9.680;2023-10-09T14:03:57;2.60;;;2.23;;
7875;SDS011;69649;53.712;9.680;2023-10-09T14:06:21;5.30;;;2.63;;
7875;SDS011;69649;53.712;9.680;2023-10-09T14:08:49;4.30;;;2.80;;
7875;SDS011;69649;53.712;9.680;2023-10-09T14:11:16;3.37;;;2.63;;
7875;SDS011;69649;53.712;9.680;2023-10-09T14:13:42;2.57;;;1.97;;
7875;SDS011;69649;53.712;9.680;2023-10-09T14:16:08;2.83;;;2.63;;
7875;SDS011;69649;53.712;9.680;2023-10-09T14:18:39;2.60;;;2.10;;
7875;SDS011;69649;53.712;9.680;2023-10-09T14:21:06;2.07;;;1.87;;
7875;SDS011;69649;53.712;9.680;2023-10-09T14:23:33;3.50;;;2.70;;
7875;SDS011;69649;53.712;9.680;2023-10-09T14:26:00;3.00;;;2.27;;
7875;SDS011;69649;53.712;9.680;2023-10-09T14:28:27;3.17;;;2.20;;
7875;SDS011;69649;53.712;9.680;2023-10-09T14:30:54;2.13;;;1.90;;
7875;SDS011;69649;53.712;9.680;2023-10-09T14:33:22;2.30;;;2.10;;
7875;SDS011;69649;53.712;9.680;2023-10-09T14:35:48;2.60;;;2.40;;
7875;SDS011;69649;53.712;9.680;2023-10-09T14:38:14;3.27;;;2.60;;
7875;SDS011;69649;53.712;9.680;2023-10-09T14:40:44;2.60;;;2.40;;
7875;SDS011;69649;53.712;9.680;2023-10-09T14:43:11;2.50;;;2.10;;
7875;SDS011;69649;53.712;9.680;2023-10-09T14:45:46;2.50;;;2.30;;
7875;SDS011;69649;53.712;9.680;2023-10-09T14:48:15;2.40;;;2.20;;
7875;SDS011;69649;53.712;9.680;2023-10-09T14:50:47;2.37;;;2.17;;
7875;SDS011;69649;53.712;9.680;2023-10-09T14:53:14;3.13;;;1.90;;
7875;SDS011;69649;53.712;9.680;2023-10-09T14:55:41;3.13;;;2.13;;
7875;SDS011;69649;53.712;9.680;2023-10-09T14:58:09;3.40;;;2.60;;
7875;SDS011;69649;53.712;9.680;2023-10-09T15:00:36;9.87;;;6.60;;
7875;SDS011;69649;53.712;9.680;2023-10-09T15:03:04;11.13;;;5.83;;
7875;SDS011;69649;53.712;9.680;2023-10-09T15:05:30;5.60;;;4.40;;
7875;SDS011;69649;53.712;9.680;2023-10-09T15:07:59;5.57;;;3.03;;
7875;SDS011;69649;53.712;9.680;2023-10-09T15:10:26;3.43;;;2.90;;
7875;SDS011;69649;53.712;9.680;2023-10-09T15:12:53;4.13;;;3.20;;
7875;SDS011;69649;53.712;9.680;2023-10-09T15:15:19;3.80;;;2.83;;
7875;SDS011;69649;53.712;9.680;2023-10-09T15:17:47;4.33;;;2.70;;
7875;SDS011;69649;53.712;9.680;2023-10-09T15:20:13;5.17;;;3.10;;
7875;SDS011;69649;53.712;9.680;2023-10-09T15:22:43;3.37;;;2.80;;
7875;SDS011;69649;53.712;9.680;2023-10-09T15:25:10;2.80;;;2.60;;
7875;SDS011;69649;53.712;9.680;2023-10-09T15:27:43;3.20;;;2.90;;
7875;SDS011;69649;53.712;9.680;2023-10-09T15:30:09;3.37;;;2.77;;
7875;SDS011;69649;53.712;9.680;2023-10-09T15:32:38;3.73;;;2.93;;
7875;SDS011;69649;53.712;9.680;2023-10-09T15:35:04;4.80;;;3.43;;
7875;SDS011;69649;53.712;9.680;2023-10-09T15:37:31;3.80;;;2.90;;
7875;SDS011;69649;53.712;9.680;2023-10-09T15:39:57;5.37;;;2.80;;
7875;SDS011;69649;53.712;9.680;2023-10-09T15:42:22;4.73;;;2.03;;
7875;SDS011;69649;53.712;9.680;2023-10-09T15:44:50;5.27;;;2.47;;
7875;SDS011;69649;53.712;9.680;2023-10-09T15:47:19;3.10;;;2.40;;
7875;SDS011;69649;53.712;9.680;2023-10-09T15:49:47;4.97;;;2.80;;
7875;SDS011;69649;53.712;9.680;2023-10-09T15:52:12;6.03;;;1.47;;